Time;durP1;ratioP1;P1;durP2;ratioP2;P2;SDS_P1;SDS_P2;PMS_P1;PMS_P2;Temp;Humidity;BMP_temperature;BMP_pressure;BME280_temperature;BME280_humidity;BME280_pressure;Samples;Min_cycle;Max_cycle;Signal;HPM_P1;HPM_P2
2020/12/13 00:01:00;;;;;;;44.33;27.88;;;5.80;90.30;;;;;;2081929;28;20060;-74
2020/12/13 00:02:06;;;;;;;43.63;27.73;;;5.80;90.30;;;;;;2080137;28;20037;-74
2020/12/13 00:03:08;;;;;;;42.67;27.25;;;5.80;90.40;;;;;;2073505;28;20022;-72
2020/12/13 00:04:08;;;;;;;46.45;28.55;;;5.80;90.40;;;;;;2080920;28;20029;-72
2020/12/13 00:05:09;;;;;;;43.30;27.13;;;5.80;90.40;;;;;;2081348;28;20030;-72
2020/12/13 00:06:10;;;;;;;43.45;28.08;;;5.80;90.70;;;;;;2080778;28;20022;-74
2020/12/13 00:07:11;;;;;;;46.50;27.45;;;5.80;90.40;;;;;;2072448;28;20054;-73
2020/12/13 00:08:12;;;;;;;45.78;27.98;;;5.80;90.40;;;;;;2064424;28;20042;-72
2020/12/13 00:09:12;;;;;;;45.40;28.65;;;5.80;90.50;;;;;;2064458;28;20034;-72
2020/12/13 00:10:13;;;;;;;44.20;28.70;;;5.80;90.50;;;;;;2080788;28;20104;-73
2020/12/13 00:11:16;;;;;;;48.33;30.33;;;5.80;90.50;;;;;;2081382;28;20112;-72
2020/12/13 00:12:17;;;;;;;47.95;29.40;;;5.80;90.40;;;;;;2080733;28;20064;-74
2020/12/13 00:13:18;;;;;;;46.92;28.80;;;5.80;90.40;;;;;;2081391;28;20056;-74
2020/12/13 00:14:18;;;;;;;45.30;28.00;;;5.80;90.40;;;;;;2081440;28;20031;-73
2020/12/13 00:15:19;;;;;;;46.78;29.42;;;5.70;90.40;;;;;;2081327;28;20045;-74
2020/12/13 00:16:20;;;;;;;44.95;28.52;;;5.70;90.40;;;;;;2081290;28;20036;-74
2020/12/13 00:17:20;;;;;;;42.80;27.92;;;5.70;90.40;;;;;;2081304;28;20571;-74
2020/12/13 00:18:21;;;;;;;45.30;28.08;;;5.70;90.50;;;;;;2081446;28;20030;-74
2020/12/13 00:19:22;;;;;;;54.47;31.58;;;5.70;90.40;;;;;;2080590;28;20030;-73
2020/12/13 00:20:25;;;;;;;49.08;29.80;;;5.70;90.50;;;;;;2080567;28;20033;-75
2020/12/13 00:21:26;;;;;;;50.17;30.27;;;5.70;90.50;;;;;;2080269;28;20556;-72
2020/12/13 00:22:27;;;;;;;50.50;30.25;;;5.70;90.50;;;;;;2080204;28;20078;-74
2020/12/13 00:23:27;;;;;;;49.42;29.60;;;5.70;90.50;;;;;;2080569;28;20033;-74
2020/12/13 00:24:28;;;;;;;49.50;30.48;;;5.70;90.60;;;;;;2080539;28;20484;-73
2020/12/13 00:25:29;;;;;;;52.08;31.75;;;5.70;90.50;;;;;;2081077;28;20404;-74
2020/12/13 00:26:30;;;;;;;50.17;29.13;;;5.80;90.40;;;;;;2072376;28;20116;-73
2020/12/13 00:27:30;;;;;;;46.92;29.20;;;5.70;90.30;;;;;;2072277;28;20025;-74
2020/12/13 00:28:31;;;;;;;49.60;30.92;;;5.70;90.40;;;;;;2081313;28;20041;-73
2020/12/13 00:29:32;;;;;;;53.08;31.45;;;5.70;90.40;;;;;;2081231;28;20059;-74
2020/12/13 00:30:32;;;;;;;51.15;31.08;;;5.70;90.40;;;;;;2073745;28;20030;-74
2020/12/13 00:31:33;;;;;;;44.58;28.35;;;5.70;90.40;;;;;;2072669;28;20112;-73
2020/12/13 00:32:34;;;;;;;48.13;29.30;;;5.70;90.40;;;;;;2072605;28;20092;-74
2020/12/13 00:33:35;;;;;;;46.72;29.00;;;5.70;90.30;;;;;;2072906;28;20231;-73
2020/12/13 00:34:36;;;;;;;47.92;29.42;;;5.70;90.60;;;;;;2080628;28;20033;-74
2020/12/13 00:35:37;;;;;;;48.97;29.63;;;5.70;90.30;;;;;;2072205;28;20117;-74
2020/12/13 00:36:37;;;;;;;49.78;30.73;;;5.70;90.30;;;;;;2072375;28;20033;-73
2020/12/13 00:37:38;;;;;;;51.78;31.38;;;5.70;90.20;;;;;;2072889;28;20436;-74
2020/12/13 00:38:39;;;;;;;50.10;29.77;;;5.70;90.30;;;;;;2073081;28;20075;-73
2020/12/13 00:39:39;;;;;;;51.75;30.70;;;5.70;90.40;;;;;;2072983;28;20061;-73
2020/12/13 00:40:41;;;;;;;47.53;29.48;;;5.70;90.40;;;;;;2072752;28;20477;-74
2020/12/13 00:41:41;;;;;;;46.13;28.92;;;5.70;90.40;;;;;;2072438;28;20068;-73
2020/12/13 00:42:42;;;;;;;47.30;29.05;;;5.70;90.30;;;;;;2072397;28;20536;-74
2020/12/13 00:43:43;;;;;;;47.53;29.58;;;5.70;90.30;;;;;;2072194;28;20021;-74
2020/12/13 00:44:44;;;;;;;49.33;30.40;;;5.80;90.30;;;;;;2072276;28;20030;-73
2020/12/13 00:45:45;;;;;;;48.70;29.83;;;5.70;90.30;;;;;;2073048;28;20041;-74
2020/12/13 00:46:46;;;;;;;50.17;31.25;;;5.70;90.30;;;;;;2080358;28;20056;-73
2020/12/13 00:47:47;;;;;;;49.67;30.08;;;5.70;90.30;;;;;;2080357;28;20123;-74
2020/12/13 00:48:50;;;;;;;45.35;28.40;;;5.70;90.40;;;;;;2072348;28;20034;-74
2020/12/13 00:49:51;;;;;;;51.00;30.42;;;5.80;90.40;;;;;;2064576;28;20456;-73
2020/12/13 00:50:52;;;;;;;46.33;28.98;;;5.70;90.30;;;;;;2072272;28;20588;-75
2020/12/13 00:51:53;;;;;;;47.35;29.08;;;5.80;90.30;;;;;;2079410;28;20041;-73
2020/12/13 00:52:54;;;;;;;51.72;31.23;;;5.80;90.30;;;;;;2080430;28;20388;-74
2020/12/13 00:53:55;;;;;;;46.65;29.00;;;5.80;90.40;;;;;;2072058;28;20101;-74
2020/12/13 00:54:56;;;;;;;46.30;28.75;;;5.80;90.40;;;;;;2072199;28;20034;-73
2020/12/13 00:55:57;;;;;;;47.10;28.60;;;5.80;90.40;;;;;;2080414;28;20072;-74
2020/12/13 00:56:58;;;;;;;49.20;30.02;;;5.80;90.70;;;;;;2082183;28;20091;-73
2020/12/13 00:57:59;;;;;;;46.33;28.65;;;5.80;90.40;;;;;;2081215;28;20613;-74
2020/12/13 00:59:00;;;;;;;48.60;29.35;;;5.80;90.40;;;;;;2080802;28;20033;-74
2020/12/13 01:00:01;;;;;;;46.60;29.20;;;5.80;90.40;;;;;;2081131;28;20029;-74
2020/12/13 01:01:01;;;;;;;48.95;30.20;;;5.80;90.40;;;;;;2080948;28;20081;-73
2020/12/13 01:02:05;;;;;;;49.60;30.27;;;5.80;90.30;;;;;;2079511;28;20582;-73
2020/12/13 01:03:06;;;;;;;46.58;29.08;;;5.80;90.40;;;;;;2080350;28;20025;-74
2020/12/13 01:04:07;;;;;;;49.88;30.05;;;5.80;90.50;;;;;;2080218;28;20029;-74
2020/12/13 01:05:07;;;;;;;45.50;28.10;;;5.80;90.60;;;;;;2072339;28;20065;-74
2020/12/13 01:06:08;;;;;;;45.42;28.20;;;5.80;91.00;;;;;;2080352;28;20056;-73
2020/12/13 01:07:09;;;;;;;43.60;27.45;;;5.80;90.50;;;;;;2081083;28;20025;-75
2020/12/13 01:08:10;;;;;;;43.20;27.00;;;5.80;90.50;;;;;;2080525;28;20038;-74
2020/12/13 01:09:10;;;;;;;47.75;29.77;;;5.80;90.50;;;;;;2080368;28;20102;-74
2020/12/13 01:10:11;;;;;;;45.33;28.38;;;5.80;90.50;;;;;;2088473;28;20021;-74
2020/12/13 01:11:12;;;;;;;45.03;27.33;;;5.80;90.90;;;;;;2071865;28;20356;-74
2020/12/13 01:12:12;;;;;;;44.38;27.23;;;5.80;90.60;;;;;;2063453;28;20042;-73
2020/12/13 01:13:13;;;;;;;43.17;26.58;;;5.80;90.60;;;;;;2080295;28;20046;-74
2020/12/13 01:14:14;;;;;;;45.08;27.58;;;5.80;90.60;;;;;;2080920;28;20123;-74
2020/12/13 01:15:16;;;;;;;41.33;26.70;;;5.80;90.60;;;;;;2080826;28;20120;-73
2020/12/13 01:16:18;;;;;;;44.88;28.30;;;5.80;90.70;;;;;;2080800;28;20231;-75
2020/12/13 01:17:18;;;;;;;44.45;27.88;;;5.80;90.70;;;;;;2080701;28;20091;-73
2020/12/13 01:18:19;;;;;;;43.03;27.35;;;5.80;90.80;;;;;;2080806;28;20135;-74
2020/12/13 01:19:21;;;;;;;45.55;27.48;;;5.80;90.90;;;;;;2080920;28;20036;-74
2020/12/13 01:20:23;;;;;;;46.83;28.45;;;5.80;90.90;;;;;;2080445;28;20034;-73
2020/12/13 01:21:26;;;;;;;39.25;25.52;;;5.80;91.00;;;;;;2080387;28;20053;-74
2020/12/13 01:22:27;;;;;;;44.30;26.92;;;5.80;91.00;;;;;;2079631;28;20034;-74
2020/12/13 01:23:27;;;;;;;48.40;29.20;;;5.80;91.00;;;;;;2079797;28;20033;-74
2020/12/13 01:24:28;;;;;;;43.05;26.98;;;5.80;91.00;;;;;;2080067;28;20040;-73
2020/12/13 01:25:28;;;;;;;44.78;27.98;;;5.80;91.00;;;;;;2080926;28;20172;-74
2020/12/13 01:26:29;;;;;;;43.97;27.35;;;5.80;91.00;;;;;;2080892;28;20075;-74
2020/12/13 01:27:30;;;;;;;43.90;27.90;;;5.80;91.10;;;;;;2080126;28;20032;-74
2020/12/13 01:28:31;;;;;;;44.17;27.02;;;5.80;91.20;;;;;;2080191;28;20044;-73
2020/12/13 01:29:31;;;;;;;45.58;27.13;;;5.80;91.20;;;;;;2080559;28;20108;-74
2020/12/13 01:30:32;;;;;;;43.85;27.40;;;5.80;91.20;;;;;;2073145;28;20472;-74
2020/12/13 01:31:33;;;;;;;44.67;27.52;;;5.80;91.30;;;;;;2071985;28;20099;-73
2020/12/13 01:32:38;;;;;;;44.15;27.77;;;5.80;91.30;;;;;;2071278;28;20030;-74
2020/12/13 01:33:39;;;;;;;44.05;28.20;;;5.80;91.30;;;;;;2071927;28;20030;-74
2020/12/13 01:34:39;;;;;;;48.03;28.95;;;5.80;91.30;;;;;;2072708;28;20117;-75
2020/12/13 01:35:40;;;;;;;46.03;28.08;;;5.70;91.40;;;;;;2072378;28;20072;-74
2020/12/13 01:36:43;;;;;;;44.90;27.25;;;5.70;91.40;;;;;;2071879;28;20037;-74
2020/12/13 01:37:44;;;;;;;41.47;26.33;;;5.70;91.50;;;;;;2071986;28;20033;-74
2020/12/13 01:38:45;;;;;;;42.92;27.40;;;5.70;91.60;;;;;;2080148;28;20586;-74
2020/12/13 01:39:46;;;;;;;49.28;29.10;;;5.80;91.70;;;;;;2072415;28;20018;-74
2020/12/13 01:40:47;;;;;;;43.00;27.20;;;5.70;91.80;;;;;;2072466;28;20480;-75
2020/12/13 01:41:47;;;;;;;46.53;28.75;;;5.70;91.80;;;;;;2072106;28;20039;-74
2020/12/13 01:42:48;;;;;;;46.17;28.25;;;5.80;91.80;;;;;;2071458;28;20030;-74
2020/12/13 01:43:56;;;;;;;45.22;28.13;;;5.80;91.90;;;;;;2071865;28;20041;-75
2020/12/13 01:44:57;;;;;;;45.05;28.23;;;5.70;91.90;;;;;;2079967;28;20374;-74
2020/12/13 01:45:57;;;;;;;44.33;28.33;;;5.70;92.10;;;;;;2080095;28;20059;-75
2020/12/13 01:47:00;;;;;;;44.38;28.15;;;5.70;92.10;;;;;;2072441;28;20153;-74
2020/12/13 01:48:01;;;;;;;42.92;27.25;;;5.70;92.20;;;;;;2072414;28;20125;-74
2020/12/13 01:49:09;;;;;;;41.70;26.88;;;5.70;92.30;;;;;;2072431;28;20664;-74
2020/12/13 01:50:22;;;;;;;41.67;26.42;;;5.70;92.40;;;;;;2072569;28;20493;-73
2020/12/13 01:52:48;;;;;;;45.53;27.48;;;5.70;92.50;;;;;;2054905;28;20031;-74
2020/12/13 01:53:52;;;;;;;44.13;27.33;;;5.70;92.60;;;;;;2069852;28;20034;-74
2020/12/13 01:55:05;;;;;;;41.15;26.38;;;5.70;92.60;;;;;;2072520;28;20397;-74
2020/12/13 01:56:06;;;;;;;43.10;26.70;;;5.70;92.70;;;;;;2079801;28;20034;-74
2020/12/13 01:57:07;;;;;;;44.78;27.63;;;5.70;92.70;;;;;;2071504;28;20092;-75
2020/12/13 01:58:24;;;;;;;44.50;27.67;;;5.70;92.80;;;;;;2063693;28;20034;-74
2020/12/13 01:59:26;;;;;;;44.17;27.15;;;5.70;92.80;;;;;;2073984;28;20107;-74
2020/12/13 02:00:27;;;;;;;43.70;27.20;;;5.70;92.90;;;;;;2080599;28;20021;-74
2020/12/13 02:01:28;;;;;;;44.78;27.58;;;5.70;92.90;;;;;;2080106;28;20033;-74
2020/12/13 02:02:34;;;;;;;45.67;28.45;;;5.70;92.90;;;;;;2079268;28;20516;-74
2020/12/13 02:03:45;;;;;;;45.22;27.63;;;5.70;93.00;;;;;;2080050;28;20082;-74
2020/12/13 02:04:47;;;;;;;52.45;30.60;;;5.70;93.00;;;;;;2080980;28;20171;-75
2020/12/13 02:06:00;;;;;;;48.72;30.05;;;5.70;93.10;;;;;;2081404;28;20064;-75
2020/12/13 02:07:04;;;;;;;49.22;30.15;;;5.70;93.10;;;;;;2082936;28;20025;-74
2020/12/13 02:08:06;;;;;;;47.70;29.58;;;5.60;93.10;;;;;;2081994;28;20124;-75
2020/12/13 02:09:08;;;;;;;47.30;29.67;;;5.60;93.20;;;;;;2081512;28;20017;-75
2020/12/13 02:10:10;;;;;;;47.03;28.98;;;5.60;93.20;;;;;;2081056;28;20033;-75
2020/12/13 02:11:11;;;;;;;44.33;27.52;;;5.60;93.40;;;;;;2080022;28;20484;-74
2020/12/13 02:12:12;;;;;;;45.78;28.13;;;5.60;93.40;;;;;;2079796;28;20615;-75
2020/12/13 02:13:13;;;;;;;48.00;29.00;;;5.60;93.50;;;;;;2079943;28;20025;-74
2020/12/13 02:14:14;;;;;;;48.67;28.98;;;5.60;93.50;;;;;;2080017;28;20613;-75
2020/12/13 02:15:14;;;;;;;49.83;29.25;;;5.60;93.50;;;;;;2071903;28;20038;-74
2020/12/13 02:16:16;;;;;;;52.88;31.58;;;5.60;93.60;;;;;;2071769;28;20029;-74
2020/12/13 02:17:19;;;;;;;48.05;29.98;;;5.60;93.60;;;;;;2080371;28;20036;-74
2020/12/13 02:18:20;;;;;;;46.80;28.95;;;5.60;93.60;;;;;;2080623;28;20061;-74
2020/12/13 02:19:21;;;;;;;47.67;30.02;;;5.50;93.60;;;;;;2080515;28;20132;-75
2020/12/13 02:20:21;;;;;;;49.35;30.00;;;5.50;93.60;;;;;;2080429;28;20025;-74
2020/12/13 02:21:22;;;;;;;45.70;28.90;;;5.60;93.70;;;;;;2079788;28;20026;-74
2020/12/13 02:22:23;;;;;;;46.05;28.58;;;5.50;93.70;;;;;;2079756;28;20083;-74
2020/12/13 02:23:23;;;;;;;47.83;29.50;;;5.60;93.70;;;;;;2080259;28;20215;-74
2020/12/13 02:24:24;;;;;;;45.70;29.23;;;5.50;93.70;;;;;;2079620;28;20094;-75
2020/12/13 02:25:25;;;;;;;49.28;30.17;;;5.50;93.80;;;;;;2079742;28;20095;-74
2020/12/13 02:26:25;;;;;;;54.15;33.55;;;5.50;93.70;;;;;;2079624;28;20029;-73
2020/12/13 02:27:26;;;;;;;52.20;31.77;;;5.60;93.80;;;;;;2079723;28;20207;-74
2020/12/13 02:28:27;;;;;;;49.40;30.65;;;5.50;93.80;;;;;;2088196;28;20070;-74
2020/12/13 02:29:27;;;;;;;49.33;30.35;;;5.50;93.80;;;;;;2087852;28;20124;-75
2020/12/13 02:30:29;;;;;;;50.42;30.70;;;5.50;93.80;;;;;;2073416;28;20036;-74
2020/12/13 02:31:29;;;;;;;48.88;30.10;;;5.50;93.80;;;;;;2072417;28;20107;-74
2020/12/13 02:32:30;;;;;;;48.50;29.38;;;5.60;93.80;;;;;;2071699;28;20104;-75
2020/12/13 02:33:32;;;;;;;50.00;30.23;;;5.60;93.90;;;;;;2072257;28;20025;-74
2020/12/13 02:34:32;;;;;;;50.20;31.13;;;5.50;93.80;;;;;;2072210;28;20030;-75
2020/12/13 02:35:33;;;;;;;49.17;31.05;;;5.60;93.80;;;;;;2071552;28;20037;-74
2020/12/13 02:36:34;;;;;;;51.80;31.88;;;5.60;93.80;;;;;;2063358;28;20050;-74
2020/12/13 02:37:35;;;;;;;52.70;32.13;;;5.60;93.80;;;;;;2063453;28;20116;-74
2020/12/13 02:38:35;;;;;;;51.95;32.00;;;5.60;93.80;;;;;;2063543;28;20177;-74
2020/12/13 02:39:36;;;;;;;50.75;31.83;;;5.50;93.80;;;;;;2071459;28;20110;-74
2020/12/13 02:40:37;;;;;;;53.55;32.20;;;5.50;93.80;;;;;;2072108;28;20068;-75
2020/12/13 02:41:38;;;;;;;49.08;31.02;;;5.50;93.90;;;;;;2071649;28;20030;-74
2020/12/13 02:42:38;;;;;;;54.65;32.67;;;5.50;93.90;;;;;;2071587;28;20056;-74
2020/12/13 02:43:39;;;;;;;52.38;32.47;;;5.60;93.90;;;;;;2072097;28;20026;-74
2020/12/13 02:44:40;;;;;;;53.78;32.40;;;5.50;93.90;;;;;;2072230;28;20026;-75
2020/12/13 02:45:40;;;;;;;57.03;33.40;;;5.60;94.00;;;;;;2071491;28;20080;-74
2020/12/13 02:46:41;;;;;;;62.42;37.17;;;5.60;94.00;;;;;;2071462;28;20034;-74
2020/12/13 02:47:42;;;;;;;53.80;33.70;;;5.50;94.00;;;;;;2071951;28;20025;-75
2020/12/13 02:48:42;;;;;;;59.03;35.33;;;5.60;94.10;;;;;;2071535;28;20421;-74
2020/12/13 02:49:43;;;;;;;67.97;39.70;;;5.60;94.10;;;;;;2071437;28;20109;-74
2020/12/13 02:50:44;;;;;;;63.65;37.30;;;5.50;94.00;;;;;;2072196;28;20051;-74
2020/12/13 02:51:45;;;;;;;58.83;35.80;;;5.50;94.20;;;;;;2071693;28;20171;-75
2020/12/13 02:52:46;;;;;;;62.55;36.78;;;5.50;94.20;;;;;;2071731;28;20045;-74
2020/12/13 02:53:46;;;;;;;59.25;36.70;;;5.50;94.10;;;;;;2071976;28;20397;-74
2020/12/13 02:54:47;;;;;;;58.80;36.08;;;5.50;94.20;;;;;;2071980;28;20426;-74
2020/12/13 02:55:48;;;;;;;59.40;35.90;;;5.50;94.20;;;;;;2071956;28;20040;-74
2020/12/13 02:56:48;;;;;;;68.95;40.20;;;5.50;94.30;;;;;;2072492;28;20052;-74
2020/12/13 02:57:49;;;;;;;69.60;40.45;;;5.50;94.40;;;;;;2080154;28;20034;-74
2020/12/13 02:58:50;;;;;;;62.67;37.03;;;5.40;94.40;;;;;;2080371;28;20188;-74
2020/12/13 02:59:50;;;;;;;63.78;37.20;;;5.50;94.40;;;;;;2079527;28;20117;-74
2020/12/13 03:00:51;;;;;;;61.95;37.20;;;5.50;94.40;;;;;;2079509;28;20022;-74
2020/12/13 03:01:52;;;;;;;58.30;35.53;;;5.50;94.30;;;;;;2078674;28;20029;-74
2020/12/13 03:02:52;;;;;;;66.18;38.38;;;5.50;94.30;;;;;;2071307;28;20030;-74
2020/12/13 03:03:53;;;;;;;64.15;38.17;;;5.50;94.30;;;;;;2079626;28;20029;-74
2020/12/13 03:04:54;;;;;;;68.63;39.38;;;5.50;94.20;;;;;;2080334;28;20111;-75
2020/12/13 03:05:54;;;;;;;63.53;37.40;;;5.50;94.30;;;;;;2080153;28;20018;-74
2020/12/13 03:06:55;;;;;;;64.55;36.80;;;5.40;94.30;;;;;;2079505;28;20029;-74
2020/12/13 03:07:58;;;;;;;60.42;37.08;;;5.40;94.40;;;;;;2079730;28;20080;-74
2020/12/13 03:08:58;;;;;;;62.00;36.45;;;5.50;94.40;;;;;;2079709;28;20084;-75
2020/12/13 03:09:59;;;;;;;59.05;35.97;;;5.50;94.40;;;;;;2080309;28;20026;-74
2020/12/13 03:11:00;;;;;;;58.53;35.45;;;5.50;94.30;;;;;;2079602;28;20048;-74
2020/12/13 03:12:00;;;;;;;59.25;34.72;;;5.40;94.30;;;;;;2078720;28;20043;-74
2020/12/13 03:13:01;;;;;;;62.05;37.03;;;5.50;94.30;;;;;;2080273;28;20041;-74
2020/12/13 03:14:02;;;;;;;59.17;36.15;;;5.50;94.20;;;;;;2080232;28;20167;-75
2020/12/13 03:15:02;;;;;;;58.83;36.05;;;5.50;94.20;;;;;;2079544;28;20048;-74
2020/12/13 03:16:03;;;;;;;57.83;35.42;;;5.40;94.20;;;;;;2071430;28;20026;-74
2020/12/13 03:17:05;;;;;;;62.55;37.05;;;5.50;94.20;;;;;;2079553;28;20029;-74
2020/12/13 03:18:06;;;;;;;61.63;36.25;;;5.50;94.20;;;;;;2087811;28;20056;-75
2020/12/13 03:19:07;;;;;;;62.80;37.03;;;5.50;94.30;;;;;;2079622;28;20079;-75
2020/12/13 03:20:08;;;;;;;58.90;35.58;;;5.50;94.30;;;;;;2071454;28;20026;-74
2020/12/13 03:21:08;;;;;;;56.08;34.20;;;5.50;94.40;;;;;;2079589;28;20788;-74
2020/12/13 03:22:09;;;;;;;61.70;36.17;;;5.50;94.30;;;;;;2087508;28;20028;-74
2020/12/13 03:23:10;;;;;;;55.85;33.72;;;5.50;94.30;;;;;;2082003;28;20036;-74
2020/12/13 03:24:11;;;;;;;62.72;37.10;;;5.50;94.20;;;;;;2081689;28;20215;-75
2020/12/13 03:25:12;;;;;;;62.38;36.55;;;5.50;94.30;;;;;;2081822;28;20033;-74
2020/12/13 03:26:12;;;;;;;62.83;36.92;;;5.50;94.40;;;;;;2081703;28;20408;-74
2020/12/13 03:27:13;;;;;;;60.00;35.95;;;5.50;94.30;;;;;;2081631;28;20026;-74
2020/12/13 03:28:14;;;;;;;58.40;35.70;;;5.50;94.30;;;;;;2081663;28;20438;-74
2020/12/13 03:29:14;;;;;;;55.80;34.08;;;5.50;94.20;;;;;;2081639;28;20025;-74
2020/12/13 03:30:15;;;;;;;57.15;34.38;;;5.50;94.20;;;;;;2076459;28;20463;-74
2020/12/13 03:31:16;;;;;;;59.50;35.22;;;5.50;94.10;;;;;;2072501;28;20022;-75
2020/12/13 03:32:17;;;;;;;58.97;35.22;;;5.50;94.00;;;;;;2072229;28;20022;-73
2020/12/13 03:33:17;;;;;;;55.83;34.13;;;5.60;94.00;;;;;;2073517;28;20026;-73
2020/12/13 03:34:18;;;;;;;58.47;35.05;;;5.50;94.00;;;;;;2073607;28;20488;-72
2020/12/13 03:35:19;;;;;;;59.95;35.38;;;5.50;94.00;;;;;;2073439;28;20044;-73
2020/12/13 03:36:19;;;;;;;57.13;34.95;;;5.50;94.00;;;;;;2073546;28;20022;-73
2020/12/13 03:37:20;;;;;;;59.17;35.90;;;5.50;93.90;;;;;;2072794;28;20444;-73
2020/12/13 03:38:21;;;;;;;61.70;36.80;;;5.50;93.90;;;;;;2072855;28;20037;-73
2020/12/13 03:39:22;;;;;;;59.10;35.50;;;5.50;94.00;;;;;;2073389;28;20022;-73
2020/12/13 03:40:22;;;;;;;62.67;37.25;;;5.50;94.00;;;;;;2073433;28;20068;-73
2020/12/13 03:41:23;;;;;;;62.30;37.40;;;5.50;94.00;;;;;;2073123;28;20113;-73
2020/12/13 03:42:24;;;;;;;58.13;34.35;;;5.60;93.90;;;;;;2072696;28;20520;-73
2020/12/13 03:43:24;;;;;;;58.58;35.13;;;5.50;93.90;;;;;;2073233;28;20025;-73
2020/12/13 03:44:25;;;;;;;55.55;33.95;;;5.60;93.90;;;;;;2073093;28;20085;-73
2020/12/13 03:45:26;;;;;;;56.72;34.38;;;5.50;94.00;;;;;;2081359;28;20025;-73
2020/12/13 03:46:26;;;;;;;54.53;32.92;;;5.50;93.90;;;;;;2073317;28;20026;-73
2020/12/13 03:47:27;;;;;;;53.80;33.38;;;5.50;94.00;;;;;;2072965;28;20512;-73
2020/12/13 03:48:28;;;;;;;52.67;33.33;;;5.50;93.90;;;;;;2073478;28;20473;-73
2020/12/13 03:49:28;;;;;;;55.55;33.05;;;5.50;94.00;;;;;;2073545;28;20765;-73
2020/12/13 03:50:38;;;;;;;56.05;34.13;;;5.50;93.90;;;;;;2073373;28;20103;-73
2020/12/13 03:51:39;;;;;;;57.45;33.72;;;5.50;93.90;;;;;;2072873;28;20526;-72
2020/12/13 03:52:39;;;;;;;59.70;35.22;;;5.50;93.80;;;;;;2072701;28;20079;-73
2020/12/13 03:53:40;;;;;;;61.42;35.30;;;5.60;93.80;;;;;;2072623;28;20472;-73
2020/12/13 03:54:41;;;;;;;56.22;34.63;;;5.60;93.80;;;;;;2072748;28;20067;-73
2020/12/13 03:55:42;;;;;;;58.10;35.30;;;5.60;93.70;;;;;;2073249;28;20053;-73
2020/12/13 03:56:43;;;;;;;56.63;35.03;;;5.60;93.70;;;;;;2073291;28;20052;-73
2020/12/13 03:57:43;;;;;;;58.45;34.70;;;5.60;93.70;;;;;;2081044;28;20082;-74
2020/12/13 03:58:44;;;;;;;58.58;34.95;;;5.60;93.60;;;;;;2081400;28;20014;-73
2020/12/13 03:59:45;;;;;;;57.22;34.90;;;5.60;93.60;;;;;;2081482;28;20477;-75
2020/12/13 04:00:45;;;;;;;56.60;34.28;;;5.60;93.60;;;;;;2080946;28;20018;-73
2020/12/13 04:01:46;;;;;;;54.53;33.72;;;5.60;93.60;;;;;;2080557;28;20018;-73
2020/12/13 04:02:47;;;;;;;56.45;33.40;;;5.60;93.60;;;;;;2081105;28;20025;-74
2020/12/13 04:03:47;;;;;;;56.05;34.70;;;5.60;93.50;;;;;;2080771;28;20048;-74
2020/12/13 04:04:48;;;;;;;65.45;39.47;;;5.60;93.50;;;;;;2080911;28;20017;-74
2020/12/13 04:05:49;;;;;;;67.25;38.63;;;5.60;93.50;;;;;;2081683;28;20087;-73
2020/12/13 04:06:49;;;;;;;62.80;36.90;;;5.60;93.40;;;;;;2080780;28;20025;-74
2020/12/13 04:07:51;;;;;;;62.38;36.85;;;5.60;93.40;;;;;;2072452;28;20018;-73
2020/12/13 04:08:52;;;;;;;63.25;37.83;;;5.60;93.40;;;;;;2080855;28;20646;-74
2020/12/13 04:09:52;;;;;;;63.72;38.25;;;5.60;93.40;;;;;;2072485;28;20053;-74
2020/12/13 04:10:53;;;;;;;63.75;38.05;;;5.60;93.40;;;;;;2072671;28;20105;-74
2020/12/13 04:11:54;;;;;;;62.63;37.47;;;5.60;93.30;;;;;;2080420;28;20048;-75
2020/12/13 04:12:54;;;;;;;61.55;36.40;;;5.60;93.30;;;;;;2081207;28;20033;-74
2020/12/13 04:13:55;;;;;;;62.78;36.85;;;5.60;93.30;;;;;;2080721;28;20025;-74
2020/12/13 04:14:56;;;;;;;61.20;36.85;;;5.60;93.30;;;;;;2080738;28;20079;-74
2020/12/13 04:15:56;;;;;;;62.15;36.33;;;5.60;93.30;;;;;;2081238;28;20025;-73
2020/12/13 04:16:57;;;;;;;58.30;35.28;;;5.60;93.30;;;;;;2081294;28;20041;-74
2020/12/13 04:17:58;;;;;;;58.95;35.30;;;5.60;93.30;;;;;;2072176;28;20121;-74
2020/12/13 04:18:58;;;;;;;57.00;34.00;;;5.60;93.30;;;;;;2072387;28;20053;-74
2020/12/13 04:19:59;;;;;;;55.97;33.45;;;5.60;93.30;;;;;;2081176;28;20105;-75
2020/12/13 04:21:00;;;;;;;53.78;33.05;;;5.60;93.30;;;;;;2081195;28;20029;-74
2020/12/13 04:22:01;;;;;;;52.65;32.58;;;5.60;93.30;;;;;;2080372;28;20029;-74
2020/12/13 04:23:02;;;;;;;54.10;34.05;;;5.70;93.30;;;;;;2081113;28;20025;-74
2020/12/13 04:24:03;;;;;;;58.80;34.38;;;5.60;93.30;;;;;;2081048;28;20401;-74
2020/12/13 04:25:05;;;;;;;58.78;35.20;;;5.70;93.30;;;;;;2081212;28;20034;-75
2020/12/13 04:26:05;;;;;;;57.83;35.33;;;5.60;93.20;;;;;;2081181;28;20025;-74
2020/12/13 04:27:06;;;;;;;57.05;35.15;;;5.60;93.20;;;;;;2081642;28;20473;-74
2020/12/13 04:28:07;;;;;;;55.95;33.70;;;5.60;93.20;;;;;;2081017;28;20065;-74
2020/12/13 04:29:08;;;;;;;54.65;33.85;;;5.70;93.30;;;;;;2081234;28;20067;-74
2020/12/13 04:30:08;;;;;;;60.90;36.95;;;5.60;93.20;;;;;;2076270;28;20026;-74
2020/12/13 04:31:09;;;;;;;57.92;35.97;;;5.60;93.20;;;;;;2072319;28;20553;-74
2020/12/13 04:32:10;;;;;;;56.22;34.30;;;5.60;93.20;;;;;;2072033;28;20054;-74
2020/12/13 04:33:11;;;;;;;54.13;33.42;;;5.60;93.20;;;;;;2072638;28;20393;-74
2020/12/13 04:34:11;;;;;;;61.47;36.92;;;5.60;93.20;;;;;;2072289;28;20397;-74
2020/12/13 04:35:12;;;;;;;58.63;35.15;;;5.60;93.10;;;;;;2073043;28;20029;-74
2020/12/13 04:36:13;;;;;;;57.90;34.92;;;5.60;93.10;;;;;;2072882;28;20026;-74
2020/12/13 04:37:13;;;;;;;60.80;36.10;;;5.60;93.10;;;;;;2072831;28;20057;-75
2020/12/13 04:38:14;;;;;;;59.47;36.45;;;5.60;93.10;;;;;;2072883;28;20034;-74
2020/12/13 04:39:15;;;;;;;57.35;35.58;;;5.60;93.10;;;;;;2073029;28;20117;-75
2020/12/13 04:40:15;;;;;;;58.13;34.85;;;5.60;93.10;;;;;;2072310;28;20045;-74
2020/12/13 04:41:17;;;;;;;57.95;35.28;;;5.60;93.10;;;;;;2071892;28;20022;-73
2020/12/13 04:42:22;;;;;;;61.25;36.30;;;5.60;93.10;;;;;;2071655;28;20485;-74
2020/12/13 04:43:22;;;;;;;59.83;35.58;;;5.60;93.00;;;;;;2072250;28;20452;-74
2020/12/13 04:44:24;;;;;;;57.28;35.00;;;5.70;93.00;;;;;;2072263;28;20046;-74
2020/12/13 04:45:24;;;;;;;56.47;34.13;;;5.60;93.00;;;;;;2072319;28;20397;-74
2020/12/13 04:46:29;;;;;;;58.75;35.25;;;5.60;93.00;;;;;;2072791;28;20118;-74
2020/12/13 04:47:33;;;;;;;54.40;33.25;;;5.60;93.00;;;;;;2073009;28;20041;-74
2020/12/13 04:48:34;;;;;;;57.42;35.03;;;5.60;93.00;;;;;;2080389;28;20041;-74
2020/12/13 04:49:36;;;;;;;56.85;34.55;;;5.60;93.00;;;;;;2072263;28;20033;-74
2020/12/13 04:50:38;;;;;;;56.50;34.58;;;5.70;93.00;;;;;;2072235;28;20116;-74
2020/12/13 04:51:44;;;;;;;60.03;36.08;;;5.60;93.00;;;;;;2072503;28;20038;-74
2020/12/13 04:52:46;;;;;;;58.42;34.75;;;5.60;93.00;;;;;;2071663;28;20037;-73
2020/12/13 04:53:50;;;;;;;60.47;36.75;;;5.60;93.00;;;;;;2072190;28;20127;-73
2020/12/13 04:54:51;;;;;;;58.58;35.03;;;5.60;93.00;;;;;;2080376;28;20035;-74
2020/12/13 04:55:57;;;;;;;57.42;35.22;;;5.60;93.00;;;;;;2072167;28;20030;-74
2020/12/13 04:56:59;;;;;;;54.95;34.25;;;5.60;92.90;;;;;;2073891;28;20524;-73
2020/12/13 04:58:00;;;;;;;58.05;34.78;;;5.60;92.90;;;;;;2080231;28;20026;-74
2020/12/13 04:59:02;;;;;;;56.65;34.78;;;5.70;92.90;;;;;;2080326;28;20032;-74
2020/12/13 05:00:03;;;;;;;57.67;34.55;;;5.70;92.90;;;;;;2081196;28;20499;-74
2020/12/13 05:01:04;;;;;;;54.53;33.45;;;5.70;92.90;;;;;;2081029;28;20112;-74
2020/12/13 05:02:05;;;;;;;56.88;34.45;;;5.70;92.90;;;;;;2079987;28;20021;-73
2020/12/13 05:03:05;;;;;;;55.97;34.50;;;5.60;92.90;;;;;;2081045;28;20033;-73
2020/12/13 05:04:06;;;;;;;58.03;34.13;;;5.70;92.90;;;;;;2080817;28;20031;-73
2020/12/13 05:05:10;;;;;;;58.85;35.47;;;5.70;92.80;;;;;;2081180;28;20408;-74
2020/12/13 05:06:11;;;;;;;57.85;35.83;;;5.70;92.80;;;;;;2081060;28;20025;-74
2020/12/13 05:07:12;;;;;;;58.90;36.53;;;5.70;92.80;;;;;;2081164;28;20101;-74
2020/12/13 05:08:13;;;;;;;65.07;38.75;;;5.70;92.80;;;;;;2081078;28;20048;-74
2020/12/13 05:09:15;;;;;;;58.33;35.53;;;5.70;92.70;;;;;;2081092;28;20048;-74
2020/12/13 05:10:16;;;;;;;57.35;35.17;;;5.70;92.80;;;;;;2081157;28;20026;-74
2020/12/13 05:11:17;;;;;;;58.22;35.10;;;5.60;92.70;;;;;;2080890;28;20045;-74
2020/12/13 05:12:23;;;;;;;59.03;34.92;;;5.70;92.80;;;;;;2081699;28;20104;-74
2020/12/13 05:13:24;;;;;;;59.33;35.47;;;5.70;92.80;;;;;;2082499;28;20457;-74
2020/12/13 05:14:25;;;;;;;57.50;34.50;;;5.70;92.70;;;;;;2081649;28;20034;-74
2020/12/13 05:15:26;;;;;;;56.53;34.65;;;5.70;92.80;;;;;;2081479;28;20507;-74
2020/12/13 05:16:26;;;;;;;55.95;35.08;;;5.70;92.80;;;;;;2081381;28;20034;-74